Startpagina
METAR-TAF:

METAR-TAF

Vliegvelden :

Bonaire International Airport

Bonaire, Nederlandse Antillen

breedte: 12-09N, lengte: 068-17W, hoogte: 6 m

Actueel weer

Dit bericht is 1 uur en het 8 minuten geleden gemaakt, om 10:55 UTC
Wind 3 kt uit het noordoosten, variërend tussen het noordnoordwesten en het oostnoordoosten
Temperatuur 25°C
Vochtigheid 100%
Druk 1011 hPa
Zicht 10 km of meer

METAR: TNCB 221055Z AUTO 04003KT 340V070 9999 SCT018/// SCT032/// 25/25 Q1011

Tijdstip: 08:03 (12:03 UTC)

Verwachting

Dit bericht is 54 minuten geleden gemaakt, om 11:09 UTC
Verwachting geldig van 22 om 12 UTC tot 23 om 18 UTC
Wind 7 kt uit het oostnoordoosten
Zicht 10 km of meer
Weinig wolken op 1800 ft
Kans 40% :
Tijdelijke
van 22 om 12 UTC tot 22 om 18 UTC
Wind 10 kt uit variabele richting met uitschieters tot 20 kt
Zicht: 6000 m
Verspreide wolken op 1500 ft, Cumulonimbus.
regenbuien

TAF: TNCB 221109Z 2212/2318 06007KT 9999 FEW018 PROB40 TEMPO 2212/2218 VRB10G20KT 6000 SHRA SCT015CB

Waarnemingen en weersverwachtingen van meer dan 4000 vliegvelden (METAR en TAF).

De beschikbare stations zijn de gele en rode punten op de kaart.

Ga met uw muis naar het station om de naam te zien.

Klik dan om waarnemingen en weersverwachtingen te zien.

kaart wijzigen: klik op de groene knoppen met een zwart kruis om in te zoomen, op de groene knop met een streepje om uit te zoomen of op de groene pijlen voor aangrenzende kaarten.


METAR-TAF: